Time;durP1;ratioP1;P1;durP2;ratioP2;P2;SDS_P1;SDS_P2;PMS_P1;PMS_P2;Temp;Humidity;BMP_temperature;BMP_pressure;BME280_temperature;BME280_humidity;BME280_pressure;Samples;Min_cycle;Max_cycle;Signal;HPM_P1;HPM_P2
2023/03/30 00:02:29;;;;;;;3.75;2.33;;;17.30;92.60;;;;;;5033855;28;20021;-74
2023/03/30 00:05:01;;;;;;;6.60;1.73;;;17.30;92.60;;;;;;5033178;28;20025;-74
2023/03/30 00:07:28;;;;;;;4.57;1.73;;;17.30;92.60;;;;;;5033731;28;20029;-74
2023/03/30 00:09:54;;;;;;;3.70;1.60;;;17.30;92.60;;;;;;5033557;28;20095;-74
2023/03/30 00:12:20;;;;;;;4.90;1.90;;;17.20;92.60;;;;;;5033654;28;20390;-74
2023/03/30 00:14:47;;;;;;;2.50;1.35;;;17.30;92.50;;;;;;5033266;28;20501;-74
2023/03/30 00:17:12;;;;;;;2.95;1.67;;;17.20;92.50;;;;;;5033002;28;20033;-75
2023/03/30 00:19:38;;;;;;;6.72;1.58;;;17.20;92.50;;;;;;5033439;28;20018;-73
2023/03/30 00:22:05;;;;;;;4.63;1.63;;;17.20;92.50;;;;;;5033230;28;20033;-74
2023/03/30 00:24:31;;;;;;;1.80;1.30;;;17.20;92.40;;;;;;5033278;28;20018;-75
2023/03/30 00:26:56;;;;;;;4.00;1.30;;;17.20;92.50;;;;;;5033140;28;20048;-74
2023/03/30 00:29:22;;;;;;;3.72;1.15;;;17.30;92.50;;;;;;5033044;28;20029;-74
2023/03/30 00:31:47;;;;;;;2.72;1.52;;;17.20;92.50;;;;;;5033114;28;20104;-74
2023/03/30 00:34:13;;;;;;;3.72;1.58;;;17.20;92.50;;;;;;5033504;28;20017;-74
2023/03/30 00:36:39;;;;;;;4.85;1.42;;;17.20;92.50;;;;;;5033151;28;20383;-74
2023/03/30 00:39:05;;;;;;;2.60;1.35;;;17.20;92.50;;;;;;5032934;28;20030;-74
2023/03/30 00:41:35;;;;;;;3.17;1.67;;;17.20;92.50;;;;;;5032877;28;20021;-74
2023/03/30 00:44:04;;;;;;;4.47;1.58;;;17.20;92.50;;;;;;5032862;28;20099;-74
2023/03/30 00:46:31;;;;;;;4.07;1.90;;;17.20;92.40;;;;;;5032816;28;20040;-74
2023/03/30 00:49:03;;;;;;;2.67;1.70;;;17.20;92.50;;;;;;5014980;28;20028;-74
2023/03/30 00:51:35;;;;;;;2.67;1.25;;;17.20;92.50;;;;;;5033034;28;20391;-74
2023/03/30 00:54:11;;;;;;;3.53;1.70;;;17.10;92.40;;;;;;5032725;28;20024;-74
2023/03/30 00:56:36;;;;;;;3.47;1.70;;;17.20;92.40;;;;;;5032911;28;20026;-75
2023/03/30 00:59:02;;;;;;;3.15;1.30;;;17.10;92.40;;;;;;5032530;28;20109;-75
2023/03/30 01:01:28;;;;;;;2.40;1.27;;;17.10;92.50;;;;;;5032631;28;20022;-74
2023/03/30 01:03:58;;;;;;;3.35;1.73;;;17.10;92.60;;;;;;5032770;28;20018;-75
2023/03/30 01:06:25;;;;;;;4.18;1.27;;;17.10;92.60;;;;;;5032712;28;20041;-74
2023/03/30 01:08:52;;;;;;;3.30;1.70;;;17.10;92.60;;;;;;5032740;28;20026;-74
2023/03/30 01:11:20;;;;;;;3.45;1.40;;;17.10;92.60;;;;;;5032281;28;20029;-74
2023/03/30 01:13:48;;;;;;;4.47;1.20;;;17.10;92.60;;;;;;5032652;28;20022;-74
2023/03/30 01:16:55;;;;;;;3.75;1.60;;;17.00;92.60;;;;;;5032167;28;20037;-74
2023/03/30 01:19:48;;;;;;;4.80;1.70;;;17.10;92.60;;;;;;5024248;28;20072;-75
2023/03/30 01:22:23;;;;;;;2.60;1.25;;;17.00;92.60;;;;;;5032597;28;20029;-74
2023/03/30 01:25:19;;;;;;;3.65;1.27;;;16.90;92.50;;;;;;5032258;28;20026;-75
2023/03/30 01:28:10;;;;;;;4.78;1.63;;;17.00;92.60;;;;;;5032442;28;20061;-74
2023/03/30 01:30:44;;;;;;;3.00;1.48;;;17.00;92.60;;;;;;5032117;28;20498;-74
2023/03/30 01:33:34;;;;;;;3.38;1.88;;;16.90;92.60;;;;;;5032388;28;20021;-74
2023/03/30 01:36:33;;;;;;;5.00;1.73;;;17.00;92.70;;;;;;5032221;28;20458;-74
2023/03/30 01:39:32;;;;;;;3.10;1.13;;;16.90;92.60;;;;;;5032357;28;20410;-74
2023/03/30 01:42:16;;;;;;;3.85;1.20;;;16.90;92.60;;;;;;5032177;28;20379;-75
2023/03/30 01:44:47;;;;;;;4.53;1.70;;;16.90;92.60;;;;;;5032003;28;20056;-74
2023/03/30 01:47:44;;;;;;;3.42;1.25;;;16.90;92.70;;;;;;5032211;28;20363;-75
2023/03/30 01:50:16;;;;;;;2.53;1.40;;;16.90;92.60;;;;;;5032304;28;20022;-75
2023/03/30 01:53:07;;;;;;;4.05;1.60;;;16.90;92.70;;;;;;5031855;28;20040;-75
2023/03/30 01:55:42;;;;;;;2.80;1.60;;;16.90;92.70;;;;;;5035294;28;20032;-75
2023/03/30 01:58:35;;;;;;;3.05;1.27;;;16.80;92.70;;;;;;5036224;28;20032;-74
2023/03/30 02:01:01;;;;;;;;;;;16.90;92.60;;;;;;5018447;28;20108;-75
2023/03/30 02:03:29;;;;;;;4.55;1.40;;;16.80;92.70;;;;;;5035998;28;19937;-74
2023/03/30 02:06:02;;;;;;;3.35;1.10;;;16.80;93.00;;;;;;5035729;28;20042;-75
2023/03/30 02:08:31;;;;;;;3.42;1.60;;;16.80;92.80;;;;;;5035902;28;20013;-75
2023/03/30 02:10:58;;;;;;;5.20;1.63;;;16.80;92.70;;;;;;5017968;28;20078;-74
2023/03/30 02:13:26;;;;;;;5.38;1.38;;;16.80;92.70;;;;;;5035690;28;20029;-75
2023/03/30 02:15:56;;;;;;;4.20;1.55;;;16.80;92.70;;;;;;5035733;28;20052;-74
2023/03/30 02:18:22;;;;;;;3.65;1.38;;;16.80;92.80;;;;;;5035748;28;20078;-75
2023/03/30 02:20:48;;;;;;;3.00;1.20;;;16.80;92.70;;;;;;5035711;28;20480;-74
2023/03/30 02:23:17;;;;;;;3.90;1.50;;;16.80;92.70;;;;;;5035608;28;20097;-76
2023/03/30 02:25:44;;;;;;;5.47;1.63;;;16.80;92.70;;;;;;5017915;28;20025;-74
2023/03/30 02:28:09;;;;;;;3.28;1.38;;;16.80;92.60;;;;;;5035286;28;20040;-74
2023/03/30 02:30:39;;;;;;;4.75;1.40;;;16.80;92.70;;;;;;5035880;28;20367;-74
2023/03/30 02:33:07;;;;;;;4.38;1.40;;;16.70;92.60;;;;;;5035360;28;20029;-75
2023/03/30 02:36:22;;;;;;;5.68;1.48;;;16.70;92.60;;;;;;5035390;28;20018;-74
2023/03/30 02:39:21;;;;;;;5.38;1.45;;;16.70;92.40;;;;;;5000613;28;20057;-74
2023/03/30 02:42:27;;;;;;;5.45;1.17;;;16.70;92.60;;;;;;5035278;28;20098;-73
2023/03/30 02:45:07;;;;;;;4.95;1.65;;;16.60;92.60;;;;;;5034821;28;20037;-73
2023/03/30 02:47:53;;;;;;;2.53;1.20;;;16.60;92.60;;;;;;5035109;28;20375;-76
2023/03/30 02:50:30;;;;;;;3.25;1.15;;;16.70;92.60;;;;;;5024024;28;20030;-73
2023/03/30 02:53:27;;;;;;;3.75;1.70;;;16.70;92.60;;;;;;4997341;28;20022;-73
2023/03/30 02:56:08;;;;;;;3.47;1.40;;;16.60;92.60;;;;;;5013903;28;20030;-74
2023/03/30 02:58:59;;;;;;;5.82;1.48;;;16.60;92.70;;;;;;5014597;28;20493;-74
2023/03/30 03:01:31;;;;;;;4.22;1.38;;;16.70;92.90;;;;;;4997284;28;20037;-74
2023/03/30 03:04:00;;;;;;;4.47;1.40;;;16.60;93.10;;;;;;5014895;28;20081;-74
2023/03/30 03:06:26;;;;;;;4.18;1.48;;;16.60;93.20;;;;;;5015042;28;20034;-74
2023/03/30 03:08:54;;;;;;;4.97;1.67;;;16.60;93.40;;;;;;5015042;28;20072;-74
2023/03/30 03:11:20;;;;;;;6.03;1.38;;;16.60;93.50;;;;;;5014692;28;20112;-75
2023/03/30 03:13:46;;;;;;;4.03;1.77;;;16.60;93.60;;;;;;5014692;28;20038;-75
2023/03/30 03:16:12;;;;;;;4.80;1.40;;;16.50;93.70;;;;;;5014884;28;20033;-74
2023/03/30 03:18:40;;;;;;;6.75;1.65;;;16.60;93.60;;;;;;5014966;28;20120;-74
2023/03/30 03:21:10;;;;;;;3.65;1.15;;;16.60;93.80;;;;;;5014863;28;20391;-74
2023/03/30 03:23:36;;;;;;;4.55;1.33;;;16.50;93.50;;;;;;5014532;28;20378;-75
2023/03/30 03:26:03;;;;;;;7.55;1.80;;;16.50;93.40;;;;;;5014292;28;20546;-75
2023/03/30 03:28:30;;;;;;;4.53;1.17;;;16.50;93.30;;;;;;5014643;28;20014;-74
2023/03/30 03:30:57;;;;;;;3.00;1.30;;;16.50;93.30;;;;;;5014618;28;20030;-75
2023/03/30 03:33:22;;;;;;;6.80;1.73;;;16.50;93.30;;;;;;5014582;28;20041;-75
2023/03/30 03:35:52;;;;;;;3.63;1.00;;;16.50;93.30;;;;;;5014560;28;20479;-75
2023/03/30 03:38:19;;;;;;;3.45;1.33;;;16.50;93.30;;;;;;5014326;28;20026;-76
2023/03/30 03:40:51;;;;;;;4.13;1.80;;;16.50;93.30;;;;;;5014271;28;20014;-75
2023/03/30 03:43:18;;;;;;;3.47;1.42;;;16.50;93.20;;;;;;5014216;28;20034;-76
2023/03/30 03:45:45;;;;;;;4.32;1.60;;;16.50;93.10;;;;;;5014064;28;20041;-76
2023/03/30 03:48:11;;;;;;;5.78;1.20;;;16.50;93.10;;;;;;5014307;28;20108;-76
2023/03/30 03:50:37;;;;;;;2.90;0.90;;;16.50;93.10;;;;;;5014131;28;20022;-75
2023/03/30 03:53:02;;;;;;;3.70;1.70;;;16.50;93.10;;;;;;5014080;28;20026;-75
2023/03/30 03:55:28;;;;;;;4.95;1.60;;;16.50;93.10;;;;;;5013996;28;20022;-75
2023/03/30 03:57:54;;;;;;;5.05;1.60;;;16.50;93.10;;;;;;5014056;28;20018;-74
2023/03/30 04:00:20;;;;;;;4.05;1.05;;;16.50;93.00;;;;;;5014324;28;20041;-75
2023/03/30 04:02:46;;;;;;;4.00;1.40;;;16.50;93.00;;;;;;5013905;28;20029;-75
2023/03/30 04:05:11;;;;;;;3.35;1.10;;;16.50;93.00;;;;;;5013720;28;20379;-81
2023/03/30 04:07:37;;;;;;;2.17;0.88;;;16.60;93.10;;;;;;5013871;28;20088;-81
2023/03/30 04:10:06;;;;;;;4.60;0.88;;;16.60;92.90;;;;;;4995977;28;20018;-81
2023/03/30 04:12:32;;;;;;;2.17;1.05;;;16.60;92.80;;;;;;5013818;28;20034;-80
2023/03/30 04:14:57;;;;;;;2.65;0.80;;;16.70;92.80;;;;;;5013415;28;20141;-81
2023/03/30 04:17:23;;;;;;;3.22;1.10;;;16.60;92.80;;;;;;5013370;28;20040;-81
2023/03/30 04:19:52;;;;;;;3.40;1.17;;;16.60;92.80;;;;;;5013598;28;20022;-81
2023/03/30 04:22:19;;;;;;;1.52;0.90;;;16.60;92.90;;;;;;4996206;28;20121;-81
2023/03/30 04:24:44;;;;;;;2.60;0.93;;;16.60;92.90;;;;;;5013544;28;20529;-81
2023/03/30 04:27:13;;;;;;;4.07;1.48;;;16.60;92.90;;;;;;5013644;28;20055;-81
2023/03/30 04:29:39;;;;;;;4.78;1.65;;;16.50;93.40;;;;;;5013200;28;20041;-81
2023/03/30 04:32:05;;;;;;;6.10;1.42;;;16.50;93.80;;;;;;5013659;28;20022;-81
2023/03/30 04:34:32;;;;;;;6.05;1.60;;;16.50;94.00;;;;;;5013398;28;20361;-81
2023/03/30 04:36:57;;;;;;;4.18;1.45;;;16.50;93.90;;;;;;5013432;28;20390;-81
2023/03/30 04:39:23;;;;;;;2.92;1.20;;;16.50;93.60;;;;;;5012939;28;20018;-81
2023/03/30 04:41:51;;;;;;;4.47;1.17;;;16.50;94.10;;;;;;5013452;28;20032;-81
2023/03/30 04:44:19;;;;;;;2.97;1.15;;;16.50;94.00;;;;;;5013083;28;20033;-81
2023/03/30 04:46:45;;;;;;;4.72;1.42;;;16.50;94.40;;;;;;5013379;28;20062;-81
2023/03/30 04:49:11;;;;;;;2.08;1.17;;;16.50;94.60;;;;;;4995633;28;20088;-81
2023/03/30 04:51:38;;;;;;;1.73;1.02;;;16.50;93.70;;;;;;5013256;28;20394;-80
2023/03/30 04:54:04;;;;;;;3.80;1.25;;;16.50;93.50;;;;;;5012492;28;20430;-81
2023/03/30 04:56:30;;;;;;;2.30;0.93;;;16.50;93.40;;;;;;5013305;28;20037;-81
2023/03/30 04:58:56;;;;;;;5.20;1.17;;;16.50;93.80;;;;;;5013175;28;20064;-81
2023/03/30 05:01:23;;;;;;;3.88;1.20;;;16.50;93.80;;;;;;5014233;28;20467;-81
2023/03/30 05:03:48;;;;;;;4.68;1.25;;;16.50;93.50;;;;;;5013069;28;20021;-81
2023/03/30 05:06:14;;;;;;;4.95;1.30;;;16.60;93.80;;;;;;5012075;28;20117;-82
2023/03/30 05:08:40;;;;;;;2.38;1.02;;;16.50;93.70;;;;;;5011819;28;20018;-81
2023/03/30 05:11:05;;;;;;;3.13;1.48;;;16.50;93.50;;;;;;5012906;28;20030;-81
2023/03/30 05:13:31;;;;;;;5.22;1.10;;;16.50;93.60;;;;;;5012599;28;20026;-81
2023/03/30 05:15:57;;;;;;;3.97;1.00;;;16.50;94.00;;;;;;5012686;28;20034;-81
2023/03/30 05:18:23;;;;;;;2.78;1.20;;;16.50;93.80;;;;;;5012997;28;20029;-80
2023/03/30 05:20:49;;;;;;;3.58;0.82;;;16.50;94.10;;;;;;5012977;28;20030;-82
2023/03/30 05:23:15;;;;;;;3.85;1.35;;;16.50;93.70;;;;;;5012423;28;20053;-81
2023/03/30 05:25:45;;;;;;;2.80;0.90;;;16.40;93.80;;;;;;5012498;28;20034;-81
2023/03/30 05:28:11;;;;;;;3.20;1.20;;;16.50;93.60;;;;;;5021630;28;20030;-80
2023/03/30 05:30:37;;;;;;;3.47;1.00;;;16.50;93.50;;;;;;5032892;28;20147;-81
2023/03/30 05:33:04;;;;;;;2.88;1.17;;;16.50;93.50;;;;;;5035070;28;20117;-80
2023/03/30 05:35:29;;;;;;;2.65;0.73;;;16.50;93.40;;;;;;5033644;28;20501;-80
2023/03/30 05:37:55;;;;;;;4.60;1.38;;;16.60;93.40;;;;;;5029957;28;20056;-79
2023/03/30 05:40:22;;;;;;;5.90;1.17;;;16.60;93.40;;;;;;5034370;28;20017;-81
2023/03/30 05:42:47;;;;;;;13.20;2.10;;;16.50;94.00;;;;;;5036158;28;20060;-72
2023/03/30 05:45:13;;;;;;;8.05;1.23;;;16.50;93.90;;;;;;5034252;28;20091;-73
2023/03/30 05:47:39;;;;;;;7.47;1.23;;;16.50;93.80;;;;;;5036853;28;20087;-75
2023/03/30 05:50:08;;;;;;;5.13;1.40;;;16.50;94.20;;;;;;5028743;28;20022;-74
2023/03/30 05:52:34;;;;;;;8.18;1.70;;;16.50;94.60;;;;;;5007821;28;20552;-73
2023/03/30 05:55:00;;;;;;;5.75;1.27;;;16.50;94.90;;;;;;5032261;28;20025;-73
2023/03/30 05:57:26;;;;;;;7.18;1.48;;;16.50;95.10;;;;;;5029693;28;20030;-73
2023/03/30 05:59:52;;;;;;;10.15;1.85;;;16.50;95.10;;;;;;5009616;28;20024;-73
2023/03/30 06:02:18;;;;;;;7.13;1.73;;;16.50;95.20;;;;;;5030547;28;20029;-73
2023/03/30 06:04:44;;;;;;;8.05;2.10;;;16.50;95.50;;;;;;5024328;28;20028;-74
2023/03/30 06:07:09;;;;;;;11.90;2.05;;;16.40;95.70;;;;;;5010716;28;20183;-73
2023/03/30 06:09:36;;;;;;;3.67;1.45;;;16.40;95.80;;;;;;5027164;28;20108;-75
2023/03/30 06:12:02;;;;;;;7.22;1.73;;;16.30;95.70;;;;;;5030922;28;20034;-74
2023/03/30 06:14:28;;;;;;;9.07;1.83;;;16.40;95.80;;;;;;5032706;28;20033;-74
2023/03/30 06:16:54;;;;;;;9.25;2.03;;;16.40;95.90;;;;;;5035753;28;20040;-73
2023/03/30 06:19:19;;;;;;;10.65;2.20;;;16.40;96.50;;;;;;5033492;28;20097;-74
2023/03/30 06:21:46;;;;;;;10.35;2.40;;;16.40;96.60;;;;;;5035007;28;20025;-74
2023/03/30 06:24:12;;;;;;;10.02;2.25;;;16.40;96.60;;;;;;5035002;28;20018;-74
2023/03/30 06:26:37;;;;;;;7.68;2.10;;;16.40;96.70;;;;;;5035287;28;20044;-74
2023/03/30 06:29:03;;;;;;;8.48;2.08;;;16.40;96.30;;;;;;5035648;28;20041;-74
2023/03/30 06:31:29;;;;;;;11.63;2.45;;;16.40;96.30;;;;;;5034851;28;20040;-74
2023/03/30 06:33:54;;;;;;;9.35;2.33;;;16.40;96.20;;;;;;5034853;28;20064;-74
2023/03/30 06:36:20;;;;;;;10.98;2.50;;;16.40;96.20;;;;;;5034884;28;20026;-74
2023/03/30 06:38:47;;;;;;;16.10;2.80;;;16.40;96.20;;;;;;5033515;28;20029;-75
2023/03/30 06:41:14;;;;;;;12.10;2.33;;;16.40;96.30;;;;;;5015309;28;20124;-74
2023/03/30 06:43:40;;;;;;;11.85;2.42;;;16.40;96.30;;;;;;5016293;28;20083;-74
2023/03/30 06:46:07;;;;;;;11.77;2.50;;;16.50;96.40;;;;;;5034980;28;20045;-74
2023/03/30 06:48:33;;;;;;;11.45;2.85;;;16.50;96.40;;;;;;5033624;28;20028;-75
2023/03/30 06:50:58;;;;;;;13.95;3.20;;;16.50;96.30;;;;;;5034486;28;20030;-75
2023/03/30 06:53:24;;;;;;;12.13;2.47;;;16.50;96.20;;;;;;5034570;28;20383;-73
2023/03/30 06:55:51;;;;;;;9.90;2.40;;;16.50;96.10;;;;;;5023383;28;20090;-74
2023/03/30 06:58:17;;;;;;;15.40;3.22;;;16.50;96.00;;;;;;5014644;28;20030;-74
2023/03/30 07:00:43;;;;;;;11.45;2.22;;;16.60;96.00;;;;;;5030406;28;20036;-74
2023/03/30 07:03:12;;;;;;;11.00;2.50;;;16.60;95.90;;;;;;5033748;28;20383;-75
2023/03/30 07:05:37;;;;;;;11.60;2.83;;;16.70;95.90;;;;;;5034434;28;20494;-74
2023/03/30 07:08:04;;;;;;;13.13;2.45;;;16.60;95.90;;;;;;5031630;28;20064;-74
2023/03/30 07:10:30;;;;;;;14.50;2.70;;;16.70;95.80;;;;;;5032836;28;20149;-76
2023/03/30 07:12:56;;;;;;;10.15;2.35;;;16.70;95.90;;;;;;5032388;28;20112;-74
2023/03/30 07:15:22;;;;;;;17.73;3.03;;;16.70;95.70;;;;;;5034569;28;20033;-74
2023/03/30 07:17:47;;;;;;;12.10;2.42;;;16.70;95.70;;;;;;5027608;28;20026;-75
2023/03/30 07:20:14;;;;;;;7.78;1.92;;;16.70;95.70;;;;;;5025672;28;20148;-74
2023/03/30 07:22:41;;;;;;;14.18;3.05;;;16.70;95.70;;;;;;5033580;28;20040;-75
2023/03/30 07:25:07;;;;;;;14.95;2.95;;;16.70;95.70;;;;;;5033656;28;20044;-74
2023/03/30 07:27:35;;;;;;;11.23;2.47;;;16.70;95.70;;;;;;5031509;28;20021;-75
2023/03/30 07:30:00;;;;;;;15.85;2.90;;;16.70;95.60;;;;;;5030623;28;20021;-75
2023/03/30 07:32:26;;;;;;;10.02;2.15;;;16.80;95.70;;;;;;5033130;28;20034;-74
2023/03/30 07:34:52;;;;;;;12.50;2.53;;;16.80;95.70;;;;;;5031230;28;20022;-75
2023/03/30 07:37:17;;;;;;;10.63;2.53;;;16.80;95.60;;;;;;5032391;28;20466;-75
2023/03/30 07:39:43;;;;;;;9.40;2.35;;;16.80;95.60;;;;;;5033564;28;20021;-75
2023/03/30 07:42:09;;;;;;;12.13;2.67;;;16.90;95.60;;;;;;5033615;28;20071;-75
2023/03/30 07:44:34;;;;;;;12.13;2.08;;;16.80;95.60;;;;;;5015502;28;20533;-75
2023/03/30 07:47:03;;;;;;;10.55;2.33;;;16.90;95.60;;;;;;5024137;28;20514;-75
2023/03/30 07:49:28;;;;;;;7.60;1.88;;;16.90;95.50;;;;;;5027992;28;20064;-75
2023/03/30 07:51:54;;;;;;;15.02;2.97;;;16.90;95.40;;;;;;5035134;28;20139;-75
2023/03/30 07:54:20;;;;;;;13.18;2.47;;;17.00;95.50;;;;;;5031499;28;20505;-74
2023/03/30 07:56:51;;;;;;;13.38;3.03;;;17.00;95.60;;;;;;5030392;28;20128;-74
2023/03/30 07:59:21;;;;;;;16.95;3.40;;;17.00;95.20;;;;;;5011740;28;20467;-73
2023/03/30 08:01:49;;;;;;;19.80;3.30;;;17.00;95.20;;;;;;5032564;28;20076;-74
2023/03/30 08:04:15;;;;;;;14.20;3.35;;;17.10;95.20;;;;;;5033036;28;20055;-74
2023/03/30 08:06:41;;;;;;;22.60;4.15;;;17.10;95.10;;;;;;5032850;28;20279;-73
2023/03/30 08:09:07;;;;;;;13.15;3.60;;;17.10;95.00;;;;;;5030028;28;20033;-75
2023/03/30 08:11:34;;;;;;;19.17;4.05;;;17.10;95.00;;;;;;5031654;28;20047;-76
2023/03/30 08:14:01;;;;;;;21.95;3.78;;;17.20;95.00;;;;;;5032187;28;20030;-74
2023/03/30 08:16:26;;;;;;;16.30;4.20;;;17.20;94.90;;;;;;5014767;28;20456;-76
2023/03/30 08:18:53;;;;;;;13.55;3.83;;;17.20;94.90;;;;;;5031318;28;20029;-75
2023/03/30 08:21:20;;;;;;;17.90;3.75;;;17.20;95.00;;;;;;5027670;28;20478;-75
2023/03/30 08:23:45;;;;;;;18.00;3.95;;;17.20;95.00;;;;;;5031527;28;20378;-76
2023/03/30 08:26:11;;;;;;;15.60;3.50;;;17.20;95.00;;;;;;5032826;28;20062;-76
2023/03/30 08:28:37;;;;;;;17.02;4.32;;;17.20;95.30;;;;;;5032844;28;20134;-78
2023/03/30 08:31:04;;;;;;;16.65;3.83;;;17.30;95.20;;;;;;5027992;28;20025;-74
2023/03/30 08:33:30;;;;;;;14.93;3.63;;;17.30;94.90;;;;;;5023485;28;20100;-75
2023/03/30 08:35:56;;;;;;;16.58;3.65;;;17.30;95.70;;;;;;5026460;28;20440;-75
2023/03/30 08:38:21;;;;;;;20.73;3.40;;;17.40;95.60;;;;;;5026171;28;20030;-75
2023/03/30 08:40:48;;;;;;;13.70;3.00;;;17.30;95.60;;;;;;5025292;28;20041;-75
2023/03/30 08:43:40;;;;;;;18.25;3.17;;;17.40;95.70;;;;;;5027535;28;20108;-79
2023/03/30 08:46:11;;;;;;;24.20;3.95;;;17.40;95.60;;;;;;5022942;28;20104;-86
2023/03/30 08:48:41;;;;;;;17.40;3.53;;;17.40;95.60;;;;;;5011812;28;20381;-75
2023/03/30 08:51:25;;;;;;;26.38;4.03;;;17.50;95.50;;;;;;5026411;28;20024;-74
2023/03/30 08:53:55;;;;;;;35.25;4.72;;;17.40;95.50;;;;;;5026473;28;20032;-73
2023/03/30 08:56:33;;;;;;;45.90;5.75;;;17.40;95.40;;;;;;5023945;28;20609;-71
2023/03/30 08:59:01;;;;;;;35.50;5.82;;;17.50;95.40;;;;;;5030821;28;20440;-72
2023/03/30 09:01:46;;;;;;;22.48;4.35;;;17.50;95.30;;;;;;5031759;28;20076;-75
2023/03/30 09:04:36;;;;;;;116.55;11.55;;;17.50;95.10;;;;;;5031459;28;20034;-74
2023/03/30 09:07:22;;;;;;;42.67;7.10;;;17.50;95.20;;;;;;5032560;28;20041;-72
2023/03/30 09:09:52;;;;;;;58.22;7.30;;;17.50;95.10;;;;;;5032039;28;20024;-70
2023/03/30 09:12:40;;;;;;;65.75;6.90;;;17.60;95.00;;;;;;5026397;28;20084;-68
2023/03/30 09:15:30;;;;;;;35.58;5.05;;;17.60;95.00;;;;;;5019113;28;20034;-68
2023/03/30 09:18:02;;;;;;;34.65;5.68;;;17.60;94.80;;;;;;5031884;28;20398;-69
2023/03/30 09:20:35;;;;;;;36.05;5.32;;;17.60;94.90;;;;;;5025183;28;20018;-68
2023/03/30 09:23:01;;;;;;;;;;;17.60;94.80;;;;;;5020960;28;20030;-74
2023/03/30 09:25:32;;;;;;;31.70;4.65;;;17.60;94.80;;;;;;5032270;28;19916;-68
2023/03/30 09:28:23;;;;;;;35.13;4.60;;;17.60;94.90;;;;;;5018218;28;20038;-68
2023/03/30 09:30:58;;;;;;;34.95;4.80;;;17.70;95.00;;;;;;5012668;28;20053;-68
2023/03/30 09:33:45;;;;;;;25.27;4.10;;;17.70;95.00;;;;;;5012657;28;20033;-69
2023/03/30 09:36:23;;;;;;;19.50;4.38;;;17.70;94.90;;;;;;5012438;28;20113;-74
2023/03/30 09:38:49;;;;;;;26.95;4.35;;;17.70;94.90;;;;;;5013012;28;20030;-77
2023/03/30 09:41:36;;;;;;;23.17;4.03;;;17.70;95.30;;;;;;5030346;28;20489;-76
2023/03/30 09:44:02;;;;;;;25.48;4.10;;;17.80;95.80;;;;;;5031226;28;20466;-72
2023/03/30 09:46:28;;;;;;;21.48;4.05;;;17.80;97.40;;;;;;5031975;28;20033;-73
2023/03/30 09:49:10;;;;;;;19.98;3.83;;;17.90;97.30;;;;;;5031666;28;20033;-75
2023/03/30 09:51:35;;;;;;;27.38;3.90;;;17.90;97.40;;;;;;5023844;28;20479;-73
2023/03/30 09:54:05;;;;;;;29.52;4.15;;;17.90;98.20;;;;;;5014501;28;20037;-76
2023/03/30 09:56:36;;;;;;;18.33;3.70;;;18.00;98.50;;;;;;5030378;28;20084;-77
2023/03/30 09:59:26;;;;;;;12.73;3.28;;;18.00;99.90;;;;;;5032048;28;20021;-72
2023/03/30 10:01:51;;;;;;;15.85;3.55;;;18.00;99.50;;;;;;5012289;28;20068;-73
2023/03/30 10:04:18;;;;;;;15.55;3.08;;;18.00;98.90;;;;;;5021456;28;20057;-73
2023/03/30 10:06:49;;;;;;;15.20;3.60;;;18.00;98.60;;;;;;5023082;28;20066;-73
2023/03/30 10:09:23;;;;;;;15.35;3.25;;;18.00;98.40;;;;;;5013252;28;20022;-81
2023/03/30 10:11:51;;;;;;;40.67;6.05;;;18.00;98.00;;;;;;5021973;28;20033;-77
2023/03/30 10:14:36;;;;;;;66.43;8.23;;;18.00;97.70;;;;;;5031832;28;20112;-74
2023/03/30 10:17:03;;;;;;;58.45;7.05;;;18.00;97.40;;;;;;5035471;28;20048;-74
2023/03/30 10:19:31;;;;;;;43.80;6.47;;;18.00;97.30;;;;;;5035923;28;20025;-76
2023/03/30 10:22:03;;;;;;;29.55;4.78;;;18.00;97.20;;;;;;5033507;28;20029;-74
2023/03/30 10:24:31;;;;;;;41.37;7.00;;;18.00;97.40;;;;;;5031946;28;20510;-76
2023/03/30 10:27:10;;;;;;;30.73;4.53;;;18.00;97.00;;;;;;5033099;28;20112;-78
2023/03/30 10:29:35;;;;;;;23.42;4.40;;;18.00;96.80;;;;;;5034557;28;20028;-74
2023/03/30 10:32:09;;;;;;;35.42;4.60;;;18.00;96.80;;;;;;5029489;28;20022;-76
2023/03/30 10:34:53;;;;;;;29.52;4.57;;;18.10;96.60;;;;;;5034480;28;20104;-75
2023/03/30 10:37:35;;;;;;;23.98;4.47;;;18.10;96.40;;;;;;5033510;28;20057;-75
2023/03/30 10:40:09;;;;;;;41.05;5.75;;;18.10;96.40;;;;;;5033682;28;20097;-75
2023/03/30 10:42:35;;;;;;;32.00;4.28;;;18.10;96.40;;;;;;5016748;28;20030;-72
2023/03/30 10:45:05;;;;;;;17.23;3.50;;;18.10;96.30;;;;;;5035080;28;20124;-76
2023/03/30 10:47:34;;;;;;;18.17;4.13;;;18.10;96.20;;;;;;5035203;28;20044;-76
2023/03/30 10:50:06;;;;;;;24.63;4.18;;;18.10;96.10;;;;;;5035103;28;20057;-75
2023/03/30 10:52:58;;;;;;;25.55;4.43;;;18.10;96.10;;;;;;5034703;28;20471;-76
2023/03/30 10:55:42;;;;;;;17.67;3.10;;;18.20;95.90;;;;;;5034693;28;20023;-73
2023/03/30 10:58:35;;;;;;;18.02;3.65;;;18.20;95.80;;;;;;5035048;28;20529;-73
2023/03/30 11:01:20;;;;;;;22.52;3.75;;;18.10;95.70;;;;;;5034892;28;20101;-75
2023/03/30 11:03:53;;;;;;;17.77;3.42;;;18.10;95.70;;;;;;5034782;28;20021;-72
2023/03/30 11:06:29;;;;;;;27.50;3.67;;;18.20;95.60;;;;;;5034674;28;20037;-73
2023/03/30 11:09:00;;;;;;;20.02;3.55;;;18.20;95.50;;;;;;5034768;28;20462;-73
2023/03/30 11:11:39;;;;;;;14.60;3.15;;;18.20;95.30;;;;;;5034675;28;20489;-72
2023/03/30 11:14:33;;;;;;;17.65;3.30;;;18.20;95.00;;;;;;5033390;28;20037;-73
2023/03/30 11:17:07;;;;;;;16.38;3.50;;;18.20;94.70;;;;;;5012699;28;20042;-75
2023/03/30 11:19:45;;;;;;;22.50;4.05;;;18.20;94.90;;;;;;5025762;28;20462;-72
2023/03/30 11:22:37;;;;;;;19.27;4.20;;;18.20;94.90;;;;;;5034592;28;20026;-76
2023/03/30 11:25:16;;;;;;;19.15;4.30;;;18.30;94.90;;;;;;5033168;28;20033;-77
2023/03/30 11:27:58;;;;;;;21.58;3.95;;;18.30;94.90;;;;;;5033283;28;20112;-75
2023/03/30 11:30:28;;;;;;;19.92;3.60;;;18.30;94.80;;;;;;5031573;28;20021;-76
2023/03/30 11:33:01;;;;;;;20.83;3.63;;;18.30;94.50;;;;;;5032398;28;20026;-75
2023/03/30 11:35:33;;;;;;;14.57;3.55;;;18.30;94.20;;;;;;5034065;28;20028;-76
2023/03/30 11:38:11;;;;;;;20.27;4.07;;;18.30;93.50;;;;;;5034184;28;20593;-75
2023/03/30 11:40:54;;;;;;;19.48;4.00;;;18.30;93.30;;;;;;5031976;28;20055;-74
2023/03/30 11:43:27;;;;;;;19.55;3.55;;;18.30;93.60;;;;;;5014072;28;20045;-75
2023/03/30 11:46:07;;;;;;;19.02;3.65;;;18.30;93.80;;;;;;5013759;28;20033;-75
2023/03/30 11:48:57;;;;;;;18.60;3.05;;;18.30;93.70;;;;;;5014316;28;20387;-74
2023/03/30 11:51:57;;;;;;;20.73;3.13;;;18.30;94.00;;;;;;5018960;28;20096;-75
2023/03/30 11:54:44;;;;;;;15.35;3.33;;;18.30;94.00;;;;;;4988152;28;20029;-75
2023/03/30 11:57:28;;;;;;;18.13;3.97;;;18.30;94.20;;;;;;5031945;28;20079;-75
2023/03/30 12:00:08;;;;;;;20.05;3.63;;;18.30;94.20;;;;;;5033743;28;20021;-75
2023/03/30 12:03:12;;;;;;;15.43;3.20;;;18.40;94.00;;;;;;5033878;28;20483;-75
2023/03/30 12:05:43;;;;;;;17.08;3.03;;;18.40;94.10;;;;;;4954663;28;20390;-75
2023/03/30 12:08:30;;;;;;;17.27;3.67;;;18.40;94.10;;;;;;5021330;28;20045;-74
2023/03/30 12:11:10;;;;;;;17.95;3.85;;;18.40;94.00;;;;;;5015954;28;20029;-75
2023/03/30 12:13:36;;;;;;;12.77;3.08;;;18.40;93.90;;;;;;5007441;28;20029;-76
2023/03/30 12:16:07;;;;;;;21.75;4.10;;;18.50;93.60;;;;;;5033444;28;20032;-75
2023/03/30 12:19:05;;;;;;;21.50;3.95;;;18.40;93.80;;;;;;5028882;28;20025;-76
2023/03/30 12:21:32;;;;;;;16.77;3.50;;;18.50;93.70;;;;;;5033442;28;20045;-72
2023/03/30 12:24:09;;;;;;;17.55;3.72;;;18.40;93.70;;;;;;5031828;28;20034;-73
2023/03/30 12:26:38;;;;;;;17.20;3.45;;;18.50;93.60;;;;;;5031049;28;20459;-74
2023/03/30 12:29:04;;;;;;;17.17;3.42;;;18.50;93.70;;;;;;5017377;28;20030;-73
2023/03/30 12:31:51;;;;;;;18.30;3.55;;;18.50;93.70;;;;;;5027324;28;20033;-73
2023/03/30 12:34:18;;;;;;;20.98;3.22;;;18.60;93.70;;;;;;5017651;28;20026;-73
2023/03/30 12:36:48;;;;;;;20.58;3.78;;;18.60;93.70;;;;;;5012686;28;20030;-73
2023/03/30 12:39:43;;;;;;;15.55;3.55;;;18.60;93.60;;;;;;5018772;28;20037;-76
2023/03/30 12:42:33;;;;;;;17.58;3.38;;;18.60;93.50;;;;;;5014996;28;20050;-74
2023/03/30 12:45:30;;;;;;;16.20;3.08;;;18.70;93.60;;;;;;5011919;28;20060;-73
2023/03/30 12:48:20;;;;;;;16.90;3.65;;;18.70;93.50;;;;;;5017237;28;20080;-73
2023/03/30 12:50:52;;;;;;;12.57;3.17;;;18.70;93.50;;;;;;5017283;28;20030;-73
2023/03/30 12:53:30;;;;;;;13.80;3.10;;;18.70;93.40;;;;;;5012085;28;20026;-75
2023/03/30 12:56:23;;;;;;;15.23;2.88;;;18.70;93.40;;;;;;5017735;28;20022;-74
2023/03/30 12:59:25;;;;;;;16.52;3.65;;;18.70;93.40;;;;;;5020259;28;20029;-72
2023/03/30 13:01:58;;;;;;;17.80;3.42;;;18.70;93.50;;;;;;5027372;28;20025;-72
2023/03/30 13:04:33;;;;;;;17.02;3.10;;;18.70;93.50;;;;;;5028684;28;20082;-72
2023/03/30 13:07:02;;;;;;;13.45;3.28;;;18.70;93.60;;;;;;5019156;28;20041;-72
2023/03/30 13:09:55;;;;;;;12.60;3.13;;;18.70;93.60;;;;;;5019679;28;20030;-73